createdAt,value
2023-09-17T00:00:11.134Z,13.55
2023-09-17T00:02:38.341Z,13.71
2023-09-17T00:05:05.519Z,13.49
2023-09-17T00:07:32.310Z,13.48
2023-09-17T00:09:59.101Z,13.32
2023-09-17T00:12:26.368Z,13.32
2023-09-17T00:14:53.383Z,13.36
2023-09-17T00:17:20.298Z,13.33
2023-09-17T00:19:47.129Z,13.49
2023-09-17T00:22:15.990Z,13.44
2023-09-17T00:24:43.153Z,13.35
2023-09-17T00:27:10.288Z,13.37
2023-09-17T00:29:37.897Z,13.44
2023-09-17T00:32:04.802Z,13.28
2023-09-17T00:34:31.659Z,13.35
2023-09-17T00:36:58.704Z,13.35
2023-09-17T00:39:25.472Z,13.29
2023-09-17T00:41:53.428Z,13.19
2023-09-17T00:44:20.310Z,13.12
2023-09-17T00:46:47.953Z,13.12
2023-09-17T00:49:15.534Z,13.19
2023-09-17T00:51:42.922Z,13.16
2023-09-17T00:54:11.938Z,13.08
2023-09-17T00:56:39.589Z,13.20
2023-09-17T00:59:09.424Z,13.12
2023-09-17T01:01:36.578Z,13.09
2023-09-17T01:04:04.639Z,13.04
2023-09-17T01:06:31.841Z,12.91
2023-09-17T01:08:59.481Z,12.91
2023-09-17T01:11:26.963Z,12.93
2023-09-17T01:14:00.163Z,12.97
2023-09-17T01:16:28.073Z,12.96
2023-09-17T01:18:55.466Z,12.88
2023-09-17T01:21:37.264Z,13.08
2023-09-17T01:24:23.213Z,13.12
2023-09-17T01:27:00.746Z,12.94
2023-09-17T01:29:33.424Z,12.89
2023-09-17T01:32:00.310Z,13.14
2023-09-17T01:34:29.572Z,12.92
2023-09-17T01:37:02.372Z,12.95
2023-09-17T01:39:34.879Z,12.99
2023-09-17T01:42:05.429Z,12.92
2023-09-17T01:44:32.824Z,12.68
2023-09-17T01:47:01.677Z,12.79
2023-09-17T01:49:33.552Z,12.88
2023-09-17T01:52:00.409Z,12.80
2023-09-17T01:54:27.221Z,12.69
2023-09-17T01:56:53.965Z,12.63
2023-09-17T01:59:20.658Z,12.66
2023-09-17T02:01:47.524Z,12.55
2023-09-17T02:04:14.390Z,12.56
2023-09-17T02:06:41.180Z,12.56
2023-09-17T02:09:09.850Z,12.56
2023-09-17T02:11:36.966Z,12.52
2023-09-17T02:14:04.104Z,12.49
2023-09-17T02:16:32.953Z,12.60
2023-09-17T02:19:00.682Z,12.58
2023-09-17T02:21:27.476Z,12.43
2023-09-17T02:23:56.217Z,12.44
2023-09-17T02:26:23.042Z,12.49
2023-09-17T02:28:50.613Z,12.61
2023-09-17T02:31:17.447Z,12.45
2023-09-17T02:33:44.784Z,12.49
2023-09-17T02:36:12.645Z,12.50
2023-09-17T02:38:39.430Z,12.63
2023-09-17T02:41:06.147Z,12.49
2023-09-17T02:43:32.944Z,12.37
2023-09-17T02:45:59.725Z,12.34
2023-09-17T02:48:26.476Z,12.30
2023-09-17T02:50:53.776Z,12.23
2023-09-17T02:53:21.585Z,12.45
2023-09-17T02:55:48.607Z,12.30
2023-09-17T02:58:16.477Z,12.24
2023-09-17T03:00:44.705Z,12.43
2023-09-17T03:03:12.330Z,12.50
2023-09-17T03:05:39.502Z,12.39
2023-09-17T03:08:10.780Z,12.25
2023-09-17T03:10:44.065Z,12.25
2023-09-17T03:13:12.394Z,12.45
2023-09-17T03:15:39.128Z,12.29
2023-09-17T03:18:06.150Z,12.15
2023-09-17T03:20:36.153Z,12.06
2023-09-17T03:23:04.129Z,12.37
2023-09-17T03:25:32.629Z,12.32
2023-09-17T03:28:02.984Z,12.09
2023-09-17T03:30:29.922Z,12.13
2023-09-17T03:33:04.336Z,12.09
2023-09-17T03:35:32.472Z,11.97
2023-09-17T03:37:59.369Z,12.08
2023-09-17T03:40:26.199Z,12.23
2023-09-17T03:42:53.683Z,12.07
2023-09-17T03:45:20.760Z,12.23
2023-09-17T03:47:48.896Z,12.11
2023-09-17T03:50:20.877Z,12.03
2023-09-17T03:52:53.498Z,12.07
2023-09-17T03:55:20.885Z,11.98
2023-09-17T03:57:47.684Z,12.01
2023-09-17T04:00:16.899Z,11.99
2023-09-17T04:02:44.499Z,11.81
2023-09-17T04:05:13.947Z,12.04
2023-09-17T04:07:46.058Z,11.86
2023-09-17T04:10:14.197Z,11.87
2023-09-17T04:12:42.721Z,11.74
2023-09-17T04:15:14.877Z,11.73
2023-09-17T04:17:41.809Z,11.68
2023-09-17T04:20:12.537Z,11.59
2023-09-17T04:22:39.557Z,11.58
2023-09-17T04:25:06.401Z,11.60
2023-09-17T04:27:33.469Z,11.54
2023-09-17T04:30:00.247Z,11.54
2023-09-17T04:32:27.170Z,11.75
2023-09-17T04:34:54.238Z,11.61
2023-09-17T04:37:21.429Z,11.57
2023-09-17T04:39:50.686Z,11.63
2023-09-17T04:42:18.554Z,11.61
2023-09-17T04:44:45.504Z,11.55
2023-09-17T04:47:12.428Z,11.57
2023-09-17T04:49:39.465Z,11.54
2023-09-17T04:52:06.386Z,11.49
2023-09-17T04:54:33.148Z,11.48
2023-09-17T04:57:00.154Z,11.53
2023-09-17T04:59:28.966Z,11.43
2023-09-17T05:01:55.954Z,11.45
2023-09-17T05:04:25.452Z,11.46
2023-09-17T05:06:52.264Z,11.56
2023-09-17T05:09:19.704Z,11.44
2023-09-17T05:11:46.963Z,11.47
2023-09-17T05:14:13.772Z,11.49
2023-09-17T05:16:41.357Z,11.49
2023-09-17T05:19:08.247Z,11.59
2023-09-17T05:21:34.943Z,11.63
2023-09-17T05:24:01.754Z,11.71
2023-09-17T05:26:28.541Z,11.81
2023-09-17T05:28:55.421Z,11.73
2023-09-17T05:31:22.295Z,11.71
2023-09-17T05:33:49.484Z,11.75
2023-09-17T05:36:16.429Z,11.72
2023-09-17T05:38:43.376Z,11.71
2023-09-17T05:41:12.989Z,11.77
2023-09-17T05:43:40.187Z,11.87
2023-09-17T05:46:06.948Z,12.00
2023-09-17T05:48:33.744Z,12.01
2023-09-17T05:51:00.813Z,11.91
2023-09-17T05:53:27.666Z,11.85
2023-09-17T05:55:54.450Z,11.94
2023-09-17T05:58:21.266Z,11.96
2023-09-17T06:00:48.693Z,12.11
2023-09-17T06:03:15.658Z,12.16
2023-09-17T06:05:42.456Z,12.11
2023-09-17T06:08:09.392Z,12.18
2023-09-17T06:10:36.965Z,12.17
2023-09-17T06:13:04.421Z,12.17
2023-09-17T06:15:31.208Z,12.27
2023-09-17T06:17:58.075Z,12.24
2023-09-17T06:20:24.919Z,12.30
2023-09-17T06:22:51.747Z,12.27
2023-09-17T06:25:18.708Z,12.30
2023-09-17T06:27:45.496Z,12.42
2023-09-17T06:30:12.665Z,12.44
2023-09-17T06:32:39.764Z,12.44
2023-09-17T06:35:07.310Z,12.52
2023-09-17T06:37:33.998Z,12.59
2023-09-17T06:40:00.963Z,12.63
2023-09-17T06:42:27.798Z,12.70
2023-09-17T06:44:54.542Z,12.86
2023-09-17T06:47:21.503Z,13.00
2023-09-17T06:49:48.726Z,13.58
2023-09-17T06:52:15.944Z,13.89
2023-09-17T06:54:42.783Z,14.32
2023-09-17T06:57:09.639Z,14.87
2023-09-17T06:59:36.585Z,15.25
2023-09-17T07:02:07.009Z,15.52
2023-09-17T07:04:33.898Z,15.71
2023-09-17T07:07:02.103Z,15.94
2023-09-17T07:09:30.192Z,16.25
2023-09-17T07:11:56.948Z,16.52
2023-09-17T07:14:23.648Z,16.86
2023-09-17T07:16:50.735Z,16.94
2023-09-17T07:19:17.603Z,17.23
2023-09-17T07:21:44.419Z,17.46
2023-09-17T07:24:11.241Z,17.56
2023-09-17T07:26:38.003Z,17.67
2023-09-17T07:29:04.978Z,17.72
2023-09-17T07:31:31.934Z,18.05
2023-09-17T07:33:58.713Z,18.23
2023-09-17T07:36:25.571Z,18.39
2023-09-17T07:38:52.997Z,18.64
2023-09-17T07:41:19.840Z,18.69
2023-09-17T07:43:46.684Z,19.10
2023-09-17T07:46:14.933Z,19.29
2023-09-17T07:48:42.183Z,19.32
2023-09-17T07:51:09.082Z,19.49
2023-09-17T07:53:35.838Z,19.54
2023-09-17T07:56:02.994Z,19.75
2023-09-17T07:58:29.824Z,19.91
2023-09-17T08:00:56.661Z,20.04
2023-09-17T08:03:23.568Z,20.24
2023-09-17T08:05:53.873Z,20.53
2023-09-17T08:08:21.880Z,20.93
2023-09-17T08:10:50.761Z,21.00
2023-09-17T08:13:17.746Z,21.06
2023-09-17T08:15:44.881Z,21.20
2023-09-17T08:18:11.736Z,21.26
2023-09-17T08:20:38.544Z,21.29
2023-09-17T08:23:05.332Z,21.71
2023-09-17T08:25:32.250Z,21.76
2023-09-17T08:28:00.313Z,21.93
2023-09-17T08:30:27.120Z,22.18
2023-09-17T08:32:54.205Z,22.41
2023-09-17T08:35:21.325Z,22.62
2023-09-17T08:37:50.733Z,22.51
2023-09-17T08:40:20.429Z,22.69
2023-09-17T08:42:47.367Z,22.84
2023-09-17T08:45:17.043Z,22.97
2023-09-17T08:47:44.496Z,23.01
2023-09-17T08:50:11.435Z,23.26
2023-09-17T08:52:44.807Z,23.29
2023-09-17T08:55:12.870Z,23.42
2023-09-17T08:57:43.423Z,23.34
2023-09-17T09:00:12.087Z,23.37
2023-09-17T09:02:45.650Z,23.49
2023-09-17T09:05:16.344Z,23.58
2023-09-17T09:07:45.677Z,23.82
2023-09-17T09:10:14.709Z,24.13
2023-09-17T09:12:43.393Z,24.28
2023-09-17T09:15:14.047Z,24.39
2023-09-17T09:17:40.967Z,24.53
2023-09-17T09:20:18.203Z,24.74
2023-09-17T09:22:46.448Z,25.25
2023-09-17T09:25:17.669Z,25.45
2023-09-17T09:27:44.967Z,25.71
2023-09-17T09:30:13.222Z,25.73
2023-09-17T09:32:40.376Z,25.90
2023-09-17T09:35:07.844Z,25.86
2023-09-17T09:37:36.528Z,25.75
2023-09-17T09:40:06.283Z,25.84
2023-09-17T09:42:33.542Z,25.86
2023-09-17T09:45:00.404Z,25.90
2023-09-17T09:47:27.290Z,25.98
2023-09-17T09:49:54.900Z,25.93
2023-09-17T09:52:23.004Z,26.03
2023-09-17T09:54:49.799Z,26.29
2023-09-17T09:57:19.803Z,26.35
2023-09-17T09:59:51.936Z,26.60
2023-09-17T10:02:22.269Z,26.81
2023-09-17T10:04:49.883Z,26.80
2023-09-17T10:07:18.138Z,26.82
2023-09-17T10:09:45.165Z,26.70
2023-09-17T10:12:11.969Z,26.59
2023-09-17T10:14:39.405Z,26.34
2023-09-17T10:17:11.728Z,26.17
2023-09-17T10:19:39.585Z,26.02
2023-09-17T10:22:09.508Z,26.19
2023-09-17T10:24:40.333Z,26.07
2023-09-17T10:27:10.436Z,25.79
2023-09-17T10:29:38.068Z,25.97
2023-09-17T10:32:05.802Z,25.68
2023-09-17T10:34:34.538Z,25.85
2023-09-17T10:37:04.305Z,25.81
2023-09-17T10:39:32.825Z,25.91
2023-09-17T10:42:02.942Z,25.96
2023-09-17T10:44:31.198Z,26.26
2023-09-17T10:47:04.809Z,26.04
2023-09-17T10:49:37.686Z,26.18
2023-09-17T10:52:06.944Z,26.28
2023-09-17T10:54:33.805Z,26.34
2023-09-17T10:57:04.855Z,26.46
2023-09-17T10:59:32.570Z,26.52
2023-09-17T11:02:00.453Z,26.60
2023-09-17T11:04:28.951Z,26.60
2023-09-17T11:06:56.748Z,26.71
2023-09-17T11:09:23.717Z,26.92
2023-09-17T11:11:51.647Z,26.95
2023-09-17T11:14:18.679Z,27.04
2023-09-17T11:16:49.487Z,27.44
2023-09-17T11:19:18.345Z,27.53
2023-09-17T11:21:49.454Z,27.57
2023-09-17T11:24:19.205Z,27.80
2023-09-17T11:26:47.250Z,27.91
2023-09-17T11:29:14.709Z,28.13
2023-09-17T11:31:53.517Z,28.42
2023-09-17T11:34:22.187Z,28.61
2023-09-17T11:36:49.794Z,28.57
2023-09-17T11:39:19.104Z,29.09
2023-09-17T11:41:48.758Z,29.42
2023-09-17T11:44:17.346Z,29.26
2023-09-17T11:46:45.453Z,29.57
2023-09-17T11:49:13.016Z,29.47
2023-09-17T11:51:44.795Z,29.08
2023-09-17T11:54:16.696Z,28.85
2023-09-17T11:56:49.370Z,29.25
2023-09-17T11:59:21.315Z,29.69
2023-09-17T12:01:57.539Z,30.04
2023-09-17T12:04:30.918Z,30.04
2023-09-17T12:06:59.113Z,29.93
2023-09-17T12:09:39.395Z,29.64
2023-09-17T12:12:07.674Z,30.01
2023-09-17T12:14:35.409Z,30.37
2023-09-17T12:17:03.434Z,30.48
2023-09-17T12:19:31.235Z,30.52
2023-09-17T12:22:00.443Z,30.83
2023-09-17T12:24:37.393Z,30.45
2023-09-17T12:27:24.094Z,30.38
2023-09-17T12:29:51.758Z,30.30
2023-09-17T12:32:21.408Z,29.99
2023-09-17T12:34:51.984Z,30.26
2023-09-17T12:37:19.692Z,30.46
2023-09-17T12:39:48.143Z,30.85
2023-09-17T12:42:15.402Z,30.77
2023-09-17T12:44:42.656Z,30.01
2023-09-17T12:47:10.347Z,30.28
2023-09-17T12:49:37.854Z,30.11
2023-09-17T12:52:05.406Z,30.18
2023-09-17T12:54:32.659Z,30.10
2023-09-17T12:57:00.393Z,30.01
2023-09-17T12:59:34.681Z,30.26
2023-09-17T13:02:07.593Z,30.18
2023-09-17T13:04:42.660Z,30.59
2023-09-17T13:07:23.821Z,30.75
2023-09-17T13:09:56.268Z,30.04
2023-09-17T13:12:26.196Z,30.04
2023-09-17T13:14:56.908Z,30.14
2023-09-17T13:17:27.409Z,30.03
2023-09-17T13:19:57.118Z,30.53
2023-09-17T13:22:24.959Z,30.37
2023-09-17T13:24:52.321Z,30.48
2023-09-17T13:27:20.535Z,30.33
2023-09-17T13:29:55.009Z,30.01
2023-09-17T13:32:22.643Z,30.05
2023-09-17T13:34:50.739Z,29.99
2023-09-17T13:37:18.566Z,30.19
2023-09-17T13:39:47.849Z,30.64
2023-09-17T13:42:15.149Z,30.04
2023-09-17T13:44:44.306Z,30.48
2023-09-17T13:47:13.279Z,30.45
2023-09-17T13:49:42.902Z,30.51
2023-09-17T13:52:10.885Z,30.63
2023-09-17T13:54:45.424Z,30.84
2023-09-17T13:57:13.349Z,29.91
2023-09-17T13:59:40.447Z,29.92
2023-09-17T14:02:08.494Z,29.91
2023-09-17T14:04:35.714Z,29.90
2023-09-17T14:07:04.145Z,30.22
2023-09-17T14:09:31.666Z,30.02
2023-09-17T14:12:00.839Z,29.93
2023-09-17T14:14:27.570Z,30.04
2023-09-17T14:16:54.629Z,30.18
2023-09-17T14:19:21.721Z,30.42
2023-09-17T14:21:49.319Z,30.29
2023-09-17T14:24:17.289Z,30.20
2023-09-17T14:26:45.216Z,30.68
2023-09-17T14:29:12.401Z,30.20
2023-09-17T14:31:43.519Z,29.80
2023-09-17T14:34:12.180Z,30.00
2023-09-17T14:36:39.539Z,29.67
2023-09-17T14:39:07.563Z,29.36
2023-09-17T14:41:36.222Z,29.39
2023-09-17T14:44:03.723Z,29.11
2023-09-17T14:46:33.192Z,28.56
2023-09-17T14:49:00.490Z,28.50
2023-09-17T14:51:27.865Z,28.55
2023-09-17T14:53:55.061Z,28.62
2023-09-17T14:56:22.209Z,28.69
2023-09-17T14:58:50.230Z,28.79
2023-09-17T15:01:46.956Z,28.75
2023-09-17T15:04:05.707Z,28.39
2023-09-17T15:06:33.234Z,28.60
2023-09-17T15:09:01.049Z,28.37
2023-09-17T15:11:28.383Z,28.32
2023-09-17T15:13:56.083Z,28.22
2023-09-17T15:16:23.834Z,28.02
2023-09-17T15:18:51.479Z,27.64
2023-09-17T15:21:19.766Z,27.41
2023-09-17T15:23:48.502Z,27.43
2023-09-17T15:26:15.941Z,27.08
2023-09-17T15:28:45.227Z,26.99
2023-09-17T15:31:14.111Z,26.82
2023-09-17T15:33:41.350Z,26.57
2023-09-17T15:36:12.345Z,26.57
2023-09-17T15:38:41.821Z,26.56
2023-09-17T15:41:09.643Z,26.55
2023-09-17T15:43:39.105Z,26.68
2023-09-17T15:46:09.421Z,26.24
2023-09-17T15:48:38.878Z,26.03
2023-09-17T15:51:06.931Z,26.10
2023-09-17T15:53:34.723Z,25.75
2023-09-17T15:56:03.437Z,25.34
2023-09-17T15:58:31.286Z,25.24
2023-09-17T16:00:59.260Z,24.84
2023-09-17T16:03:27.354Z,24.93
2023-09-17T16:05:55.295Z,24.61
2023-09-17T16:08:23.446Z,24.44
2023-09-17T16:10:50.519Z,24.30
2023-09-17T16:13:17.854Z,23.89
2023-09-17T16:15:46.775Z,23.72
2023-09-17T16:18:14.720Z,23.57
2023-09-17T16:20:41.939Z,23.30
2023-09-17T16:23:09.384Z,23.22
2023-09-17T16:25:37.361Z,23.09
2023-09-17T16:28:07.130Z,22.79
2023-09-17T16:30:34.315Z,22.68
2023-09-17T16:33:04.524Z,22.73
2023-09-17T16:35:31.406Z,22.48
2023-09-17T16:37:59.159Z,22.32
2023-09-17T16:40:25.974Z,22.52
2023-09-17T16:43:07.439Z,22.44
2023-09-17T16:45:37.488Z,21.80
2023-09-17T16:48:05.404Z,21.61
2023-09-17T16:50:33.553Z,21.68
2023-09-17T16:53:00.824Z,21.58
2023-09-17T16:55:29.538Z,21.53
2023-09-17T16:57:56.959Z,21.31
2023-09-17T17:00:25.994Z,21.28
2023-09-17T17:02:56.097Z,21.18
2023-09-17T17:05:23.898Z,21.13
2023-09-17T17:07:51.422Z,21.08
2023-09-17T17:10:18.396Z,20.66
2023-09-17T17:12:45.421Z,20.62
2023-09-17T17:15:13.070Z,20.64
2023-09-17T17:17:42.080Z,20.63
2023-09-17T17:20:09.982Z,20.49
2023-09-17T17:22:49.824Z,20.48
2023-09-17T17:25:19.814Z,20.50
2023-09-17T17:27:50.555Z,20.25
2023-09-17T17:30:18.003Z,20.10
2023-09-17T17:32:46.510Z,19.95
2023-09-17T17:35:18.567Z,19.88
2023-09-17T17:37:47.771Z,19.84
2023-09-17T17:40:15.203Z,19.78
2023-09-17T17:42:43.960Z,19.84
2023-09-17T17:45:12.132Z,19.60
2023-09-17T17:47:40.342Z,19.72
2023-09-17T17:50:14.874Z,19.64
2023-09-17T17:52:43.551Z,19.59
2023-09-17T17:55:12.692Z,19.43
2023-09-17T17:57:40.319Z,19.24
2023-09-17T18:00:10.954Z,19.16
2023-09-17T18:02:40.789Z,19.13
2023-09-17T18:05:11.750Z,19.23
2023-09-17T18:07:42.315Z,19.07
2023-09-17T18:10:11.722Z,19.07
2023-09-17T18:12:40.653Z,18.82
2023-09-17T18:15:10.288Z,18.82
2023-09-17T18:17:38.138Z,18.76
2023-09-17T18:20:07.695Z,18.82
2023-09-17T18:22:41.452Z,18.69
2023-09-17T18:25:11.551Z,18.87
2023-09-17T18:27:43.383Z,18.64
2023-09-17T18:30:10.933Z,18.60
2023-09-17T18:32:40.517Z,18.54
2023-09-17T18:35:08.101Z,18.43
2023-09-17T18:37:37.443Z,18.34
2023-09-17T18:40:05.410Z,18.26
2023-09-17T18:42:34.626Z,18.21
2023-09-17T18:45:06.916Z,18.25
2023-09-17T18:47:36.893Z,18.04
2023-09-17T18:50:05.353Z,18.11
2023-09-17T18:52:32.699Z,18.02
2023-09-17T18:55:02.526Z,17.93
2023-09-17T18:57:30.696Z,17.86
2023-09-17T18:59:58.868Z,17.76
2023-09-17T19:02:27.584Z,17.66
2023-09-17T19:04:58.980Z,17.73
2023-09-17T19:07:26.921Z,17.59
2023-09-17T19:09:56.097Z,17.60
2023-09-17T19:12:24.958Z,17.50
2023-09-17T19:14:54.254Z,17.46
2023-09-17T19:17:21.936Z,17.40
2023-09-17T19:19:50.078Z,17.46
2023-09-17T19:22:18.267Z,17.39
2023-09-17T19:24:46.332Z,17.34
2023-09-17T19:27:16.614Z,17.48
2023-09-17T19:29:48.208Z,17.38
2023-09-17T19:32:16.369Z,17.30
2023-09-17T19:34:44.222Z,17.17
2023-09-17T19:37:12.789Z,16.98
2023-09-17T19:39:41.440Z,17.04
2023-09-17T19:42:11.499Z,17.09
2023-09-17T19:44:40.863Z,16.94
2023-09-17T19:47:08.783Z,16.82
2023-09-17T19:49:39.941Z,16.88
2023-09-17T19:52:09.061Z,16.76
2023-09-17T19:54:37.162Z,16.81
2023-09-17T19:57:05.247Z,16.81
2023-09-17T19:59:32.355Z,16.69
2023-09-17T20:02:00.296Z,16.64
2023-09-17T20:04:28.684Z,16.66
2023-09-17T20:06:56.641Z,16.53
2023-09-17T20:09:24.284Z,16.45
2023-09-17T20:11:51.865Z,16.50
2023-09-17T20:14:19.532Z,16.46
2023-09-17T20:16:47.017Z,16.62
2023-09-17T20:19:17.452Z,16.50
2023-09-17T20:21:45.167Z,16.41
2023-09-17T20:24:12.423Z,16.40
2023-09-17T20:26:44.799Z,16.40
2023-09-17T20:29:13.197Z,16.47
2023-09-17T20:31:40.555Z,16.37
2023-09-17T20:34:08.390Z,16.26
2023-09-17T20:36:35.646Z,16.19
2023-09-17T20:39:06.445Z,16.22
2023-09-17T20:41:34.825Z,16.30
2023-09-17T20:44:01.982Z,16.22
2023-09-17T20:46:29.040Z,16.08
2023-09-17T20:48:59.879Z,16.10
2023-09-17T20:51:29.175Z,16.00
2023-09-17T20:53:56.308Z,16.01
2023-09-17T20:56:24.727Z,15.97
2023-09-17T20:58:52.204Z,15.98
2023-09-17T21:01:19.846Z,16.02
2023-09-17T21:03:46.902Z,15.88
2023-09-17T21:06:14.060Z,15.94
2023-09-17T21:08:40.822Z,15.87
2023-09-17T21:11:07.766Z,15.80
2023-09-17T21:13:34.516Z,15.76
2023-09-17T21:16:01.393Z,15.74
2023-09-17T21:18:28.209Z,15.77
2023-09-17T21:20:56.140Z,15.92
2023-09-17T21:23:23.443Z,15.81
2023-09-17T21:25:50.313Z,15.76
2023-09-17T21:28:17.036Z,15.69
2023-09-17T21:30:45.112Z,15.69
2023-09-17T21:33:11.966Z,15.55
2023-09-17T21:35:38.769Z,15.50
2023-09-17T21:38:05.496Z,15.55
2023-09-17T21:40:32.392Z,15.65
2023-09-17T21:42:59.256Z,15.65
2023-09-17T21:45:26.073Z,15.46
2023-09-17T21:47:52.900Z,15.35
2023-09-17T21:50:19.717Z,15.32
2023-09-17T21:52:46.508Z,15.27
2023-09-17T21:55:13.255Z,15.35
2023-09-17T21:57:40.093Z,15.41
2023-09-17T22:00:08.542Z,15.32
2023-09-17T22:02:35.478Z,15.23
2023-09-17T22:05:02.679Z,15.18
2023-09-17T22:07:29.434Z,15.20
2023-09-17T22:09:56.202Z,15.29
2023-09-17T22:12:23.037Z,15.16
2023-09-17T22:14:49.785Z,15.08
2023-09-17T22:17:17.845Z,15.14
2023-09-17T22:19:50.098Z,15.10
2023-09-17T22:22:16.930Z,15.09
2023-09-17T22:24:45.255Z,15.04
2023-09-17T22:27:14.324Z,15.02
2023-09-17T22:29:42.604Z,14.91
2023-09-17T22:32:09.450Z,14.88
2023-09-17T22:34:36.312Z,14.84
2023-09-17T22:37:03.758Z,15.01
2023-09-17T22:39:31.099Z,14.90
2023-09-17T22:41:57.869Z,14.82
2023-09-17T22:44:25.248Z,14.78
2023-09-17T22:46:52.410Z,14.97
2023-09-17T22:49:19.502Z,14.86
2023-09-17T22:51:46.201Z,14.71
2023-09-17T22:54:13.012Z,14.75
2023-09-17T22:56:39.828Z,14.68
2023-09-17T22:59:06.725Z,14.72
2023-09-17T23:03:36.332Z,14.73
2023-09-17T23:06:03.466Z,14.64
2023-09-17T23:08:30.222Z,14.60
2023-09-17T23:11:01.745Z,14.66
2023-09-17T23:13:28.594Z,14.63
2023-09-17T23:15:57.161Z,14.51
2023-09-17T23:18:24.516Z,14.60
2023-09-17T23:20:52.738Z,14.61
2023-09-17T23:23:19.682Z,14.54
2023-09-17T23:25:46.688Z,14.58
2023-09-17T23:28:14.165Z,14.60
2023-09-17T23:30:44.221Z,14.68
2023-09-17T23:33:11.315Z,14.57
2023-09-17T23:35:39.987Z,14.46
2023-09-17T23:38:06.788Z,14.41
2023-09-17T23:40:33.544Z,14.36
2023-09-17T23:43:00.283Z,14.39
2023-09-17T23:45:27.155Z,14.34
2023-09-17T23:47:54.035Z,14.40
2023-09-17T23:50:20.944Z,14.23
2023-09-17T23:52:48.568Z,14.22
2023-09-17T23:55:15.425Z,14.19
2023-09-17T23:57:42.289Z,14.14
